Time;durP1;ratioP1;P1;durP2;ratioP2;P2;SDS_P1;SDS_P2;PMS_P1;PMS_P2;Temp;Humidity;BMP_temperature;BMP_pressure;BME280_temperature;BME280_humidity;BME280_pressure;Samples;Min_cycle;Max_cycle;Signal;HPM_P1;HPM_P2
2021/04/05 00:01:01;;;;;;;17.63;12.88;;;;;;;;;;5020976;28;20388;-80
2021/04/05 00:03:28;;;;;;;19.42;12.60;;;;;;;;;;5022574;28;20195;-79
2021/04/05 00:05:55;;;;;;;16.48;11.85;;;;;;;;;;5020849;28;20195;-80
2021/04/05 00:08:22;;;;;;;16.17;12.15;;;;;;;;;;5021292;28;20576;-79
2021/04/05 00:10:52;;;;;;;18.08;11.55;;;;;;;;;;5022741;28;20210;-80
2021/04/05 00:13:23;;;;;;;16.58;11.35;;;;;;;;;;5022916;28;20204;-79
2021/04/05 00:15:51;;;;;;;13.95;11.10;;;;;;;;;;5022708;28;20190;-80
2021/04/05 00:18:19;;;;;;;15.45;10.50;;;;;;;;;;5022111;28;20195;-80
2021/04/05 00:20:51;;;;;;;17.38;9.65;;;;;;;;;;5033493;28;20222;-80
2021/04/05 00:23:18;;;;;;;13.40;11.10;;;;;;;;;;5032780;28;20182;-79
2021/04/05 00:25:46;;;;;;;16.80;11.02;;;;;;;;;;5032699;28;20209;-79
2021/04/05 00:28:13;;;;;;;14.07;10.93;;;;;;;;;;5033531;28;20199;-81
2021/04/05 00:30:41;;;;;;;15.80;11.05;;;;;;;;;;5033491;28;20731;-79
2021/04/05 00:33:09;;;;;;;13.95;9.68;;;;;;;;;;5033528;28;20267;-80
2021/04/05 00:35:40;;;;;;;12.70;10.15;;;;;;;;;;5032918;28;20198;-80
2021/04/05 00:38:09;;;;;;;15.02;10.18;;;;;;;;;;5033327;28;20236;-80
2021/04/05 00:40:40;;;;;;;14.65;9.82;;;;;;;;;;5033601;28;20310;-80
2021/04/05 00:43:09;;;;;;;13.02;10.20;;;;;;;;;;5033892;28;20198;-80
2021/04/05 00:45:36;;;;;;;16.38;11.90;;;;;;;;;;5034497;28;20209;-78
2021/04/05 00:48:05;;;;;;;18.08;11.05;;;;;;;;;;5037931;28;20221;-80
2021/04/05 00:50:41;;;;;;;14.52;11.32;;;;;;;;;;5038274;28;20579;-79
2021/04/05 00:53:09;;;;;;;16.00;11.80;;;;;;;;;;5038163;28;20205;-81
2021/04/05 00:55:38;;;;;;;14.27;10.75;;;;;;;;;;5037584;28;20708;-80
2021/04/05 00:58:05;;;;;;;15.57;10.75;;;;;;;;;;5037986;28;20691;-80
2021/04/05 01:00:38;;;;;;;18.70;13.07;;;;;;;;;;5037759;28;20226;-80
2021/04/05 01:03:08;;;;;;;19.17;13.25;;;;;;;;;;5037804;28;20256;-80
2021/04/05 01:05:35;;;;;;;19.63;14.25;;;;;;;;;;5038055;28;20228;-80
2021/04/05 01:08:03;;;;;;;25.63;15.23;;;;;;;;;;5037609;28;20358;-79
2021/04/05 01:10:30;;;;;;;21.80;14.50;;;;;;;;;;5037624;28;20237;-79
2021/04/05 01:12:57;;;;;;;25.38;18.35;;;;;;;;;;5038245;28;20282;-80
2021/04/05 01:15:25;;;;;;;22.60;15.27;;;;;;;;;;5037611;28;20691;-80
2021/04/05 01:17:52;;;;;;;25.33;14.60;;;;;;;;;;5038479;28;20198;-80
2021/04/05 01:20:21;;;;;;;24.77;15.77;;;;;;;;;;5038402;28;20227;-80
2021/04/05 01:22:52;;;;;;;24.42;17.85;;;;;;;;;;5037611;28;20209;-78
2021/04/05 01:25:21;;;;;;;23.15;17.63;;;;;;;;;;5038099;28;20202;-80
2021/04/05 01:27:48;;;;;;;28.08;17.65;;;;;;;;;;5038490;28;20214;-78
2021/04/05 01:30:28;;;;;;;23.63;16.30;;;;;;;;;;5040596;28;20214;-80
2021/04/05 01:33:18;;;;;;;27.48;16.92;;;;;;;;;;5050892;28;20716;-80
2021/04/05 01:35:48;;;;;;;23.88;16.20;;;;;;;;;;5053167;28;20217;-80
2021/04/05 01:38:19;;;;;;;32.63;18.67;;;;;;;;;;5058684;28;20201;-81
2021/04/05 01:40:49;;;;;;;28.10;19.05;;;;;;;;;;5058867;28;20226;-80
2021/04/05 01:43:16;;;;;;;27.42;18.83;;;;;;;;;;5058682;28;20229;-80
2021/04/05 01:45:44;;;;;;;30.30;19.58;;;;;;;;;;5058211;28;20215;-80
2021/04/05 01:48:13;;;;;;;26.15;17.42;;;;;;;;;;5063749;28;20205;-79
2021/04/05 01:50:41;;;;;;;26.85;17.30;;;;;;;;;;5065224;28;20217;-79
2021/04/05 01:53:10;;;;;;;26.50;18.75;;;;;;;;;;5064927;28;20206;-80
2021/04/05 01:55:38;;;;;;;25.75;15.77;;;;;;;;;;5058367;28;20224;-80
2021/04/05 01:58:06;;;;;;;28.63;17.00;;;;;;;;;;5056805;28;20205;-79
2021/04/05 02:00:37;;;;;;;25.00;16.60;;;;;;;;;;5058576;28;20582;-79
2021/04/05 02:03:09;;;;;;;29.63;17.15;;;;;;;;;;5057913;28;20197;-80
2021/04/05 02:05:38;;;;;;;23.23;16.38;;;;;;;;;;5058924;28;20252;-80
2021/04/05 02:08:07;;;;;;;24.77;16.25;;;;;;;;;;5064181;28;20212;-80
2021/04/05 02:10:34;;;;;;;26.42;16.27;;;;;;;;;;5064245;28;20711;-80
2021/04/05 02:13:02;;;;;;;23.15;14.93;;;;;;;;;;5062592;28;20206;-80
2021/04/05 02:15:29;;;;;;;21.60;14.77;;;;;;;;;;5059647;28;20236;-81
2021/04/05 02:17:56;;;;;;;26.23;17.08;;;;;;;;;;5053126;28;20229;-79
2021/04/05 02:20:23;;;;;;;22.80;15.48;;;;;;;;;;5051771;28;20721;-79
2021/04/05 02:22:52;;;;;;;20.85;14.75;;;;;;;;;;5051151;28;20248;-79
2021/04/05 02:25:21;;;;;;;24.40;16.48;;;;;;;;;;5051973;28;20198;-79
2021/04/05 02:27:50;;;;;;;23.23;16.40;;;;;;;;;;5052805;28;20205;-78
2021/04/05 02:30:23;;;;;;;19.33;15.10;;;;;;;;;;5052862;28;20221;-79
2021/04/05 02:32:56;;;;;;;26.05;15.50;;;;;;;;;;5052856;28;20623;-78
2021/04/05 02:35:24;;;;;;;21.48;14.85;;;;;;;;;;5052165;28;20218;-79
2021/04/05 02:37:52;;;;;;;24.20;14.68;;;;;;;;;;5052239;28;20202;-80
2021/04/05 02:40:19;;;;;;;21.85;16.48;;;;;;;;;;5052250;28;20225;-79
2021/04/05 02:42:47;;;;;;;26.23;17.98;;;;;;;;;;5052286;28;20201;-79
2021/04/05 02:45:19;;;;;;;22.45;13.90;;;;;;;;;;5052409;28;20205;-79
2021/04/05 02:47:49;;;;;;;25.83;17.30;;;;;;;;;;5052764;28;20209;-80
2021/04/05 02:50:16;;;;;;;21.95;15.43;;;;;;;;;;5052202;28;20714;-80
2021/04/05 02:52:43;;;;;;;19.33;14.57;;;;;;;;;;5053308;28;20197;-80
2021/04/05 02:55:12;;;;;;;26.55;15.88;;;;;;;;;;5052332;28;20516;-80
2021/04/05 02:57:41;;;;;;;18.25;13.20;;;;;;;;;;5051896;28;20206;-80
2021/04/05 03:00:11;;;;;;;23.17;16.15;;;;;;;;;;5052324;28;20754;-79
2021/04/05 03:02:40;;;;;;;24.55;15.82;;;;;;;;;;5052372;28;20202;-79
2021/04/05 03:05:09;;;;;;;29.73;17.95;;;;;;;;;;5052986;28;20251;-79
2021/04/05 03:07:37;;;;;;;24.60;17.77;;;;;;;;;;5053222;28;20204;-79
2021/04/05 03:10:06;;;;;;;22.33;16.35;;;;;;;;;;5052853;28;20205;-79
2021/04/05 03:12:34;;;;;;;26.92;17.73;;;;;;;;;;5052656;28;20267;-80
2021/04/05 03:15:02;;;;;;;27.33;18.27;;;;;;;;;;5051010;28;20699;-79
2021/04/05 03:17:29;;;;;;;24.38;17.95;;;;;;;;;;5052216;28;20245;-78
2021/04/05 03:19:57;;;;;;;26.20;18.15;;;;;;;;;;5052771;28;20206;-78
2021/04/05 03:22:24;;;;;;;24.70;16.63;;;;;;;;;;5052932;28;20563;-80
2021/04/05 03:24:50;;;;;;;23.85;16.83;;;;;;;;;;5053033;28;20198;-80
2021/04/05 03:27:17;;;;;;;25.83;18.00;;;;;;;;;;5052106;28;20206;-79
2021/04/05 03:29:45;;;;;;;23.58;17.48;;;;;;;;;;5052967;28;20217;-80
2021/04/05 03:32:15;;;;;;;31.73;18.73;;;;;;;;;;5052471;28;20238;-79
2021/04/05 03:34:48;;;;;;;24.15;17.10;;;;;;;;;;5051908;28;20218;-79
2021/04/05 03:37:18;;;;;;;25.30;18.48;;;;;;;;;;5052771;28;20288;-78
2021/04/05 03:39:48;;;;;;;26.60;16.85;;;;;;;;;;5052112;28;20205;-81
2021/04/05 03:42:17;;;;;;;28.85;18.13;;;;;;;;;;5052184;28;20260;-79
2021/04/05 03:44:49;;;;;;;31.48;17.67;;;;;;;;;;5044421;28;20205;-80
2021/04/05 03:47:21;;;;;;;26.08;17.77;;;;;;;;;;5052251;28;20197;-78
2021/04/05 03:49:51;;;;;;;25.83;18.60;;;;;;;;;;5053119;28;20242;-78
2021/04/05 03:52:26;;;;;;;24.45;17.17;;;;;;;;;;5052624;28;20694;-78
2021/04/05 03:54:58;;;;;;;28.02;18.48;;;;;;;;;;5052773;28;20213;-80
2021/04/05 03:57:31;;;;;;;22.40;17.40;;;;;;;;;;5051377;28;20205;-79
2021/04/05 04:00:07;;;;;;;27.45;18.27;;;;;;;;;;5051915;28;20209;-80
2021/04/05 04:02:43;;;;;;;26.05;16.98;;;;;;;;;;5052138;28;20574;-79
2021/04/05 04:05:15;;;;;;;27.42;17.63;;;;;;;;;;5051854;28;20258;-78
2021/04/05 04:07:48;;;;;;;27.15;17.25;;;;;;;;;;5051304;28;20267;-79
2021/04/05 04:10:17;;;;;;;26.77;15.70;;;;;;;;;;5052368;28;20230;-78
2021/04/05 04:12:48;;;;;;;23.85;18.20;;;;;;;;;;5053241;28;20205;-79
2021/04/05 04:15:16;;;;;;;26.35;17.63;;;;;;;;;;5054370;28;20225;-80
2021/04/05 04:17:44;;;;;;;25.33;16.65;;;;;;;;;;5053389;28;20213;-80
2021/04/05 04:20:14;;;;;;;22.67;16.52;;;;;;;;;;5052544;28;20245;-79
2021/04/05 04:22:43;;;;;;;23.65;15.38;;;;;;;;;;5055978;28;20202;-79
2021/04/05 04:25:10;;;;;;;28.98;18.20;;;;;;;;;;5056976;28;20285;-79
2021/04/05 04:27:38;;;;;;;24.52;15.60;;;;;;;;;;5058117;28;20201;-80
2021/04/05 04:30:07;;;;;;;27.92;17.88;;;;;;;;;;5058055;28;20220;-79
2021/04/05 04:32:34;;;;;;;24.83;16.95;;;;;;;;;;5056615;28;20198;-79
2021/04/05 04:35:01;;;;;;;24.55;16.33;;;;;;;;;;5057500;28;20255;-80
2021/04/05 04:37:28;;;;;;;20.33;15.25;;;;;;;;;;5058608;28;20210;-79
2021/04/05 04:39:57;;;;;;;19.05;14.20;;;;;;;;;;5058946;28;20194;-79
2021/04/05 04:42:25;;;;;;;18.25;14.32;;;;;;;;;;5059603;28;20229;-80
2021/04/05 04:44:51;;;;;;;24.50;16.35;;;;;;;;;;5061432;28;20212;-80
2021/04/05 04:47:18;;;;;;;21.05;15.43;;;;;;;;;;5058984;28;20194;-80
2021/04/05 04:49:47;;;;;;;23.65;16.23;;;;;;;;;;5059183;28;20237;-80
2021/04/05 04:52:14;;;;;;;25.02;15.13;;;;;;;;;;5060501;28;20236;-80
2021/04/05 04:54:41;;;;;;;24.65;15.98;;;;;;;;;;5059769;28;20197;-80
2021/04/05 04:57:08;;;;;;;24.05;16.75;;;;;;;;;;5058111;28;20666;-80
2021/04/05 04:59:35;;;;;;;22.27;16.50;;;;;;;;;;5059280;28;20202;-79
2021/04/05 05:02:03;;;;;;;18.45;14.20;;;;;;;;;;5059031;28;20603;-80
2021/04/05 05:04:30;;;;;;;23.45;14.88;;;;;;;;;;5056218;28;20208;-79
2021/04/05 05:07:00;;;;;;;24.45;15.70;;;;;;;;;;5054421;28;20194;-80
2021/04/05 05:09:27;;;;;;;22.63;14.88;;;;;;;;;;5055051;28;20202;-79
2021/04/05 05:11:54;;;;;;;22.35;16.73;;;;;;;;;;5054772;28;20233;-79
2021/04/05 05:14:22;;;;;;;21.40;15.70;;;;;;;;;;5055170;28;20197;-80
2021/04/05 05:16:50;;;;;;;28.00;17.42;;;;;;;;;;5053217;28;20701;-80
2021/04/05 05:19:17;;;;;;;20.05;15.63;;;;;;;;;;5055129;28;20202;-80
2021/04/05 05:21:47;;;;;;;20.85;14.60;;;;;;;;;;5054785;28;20225;-80
2021/04/05 05:24:17;;;;;;;28.38;19.02;;;;;;;;;;5055471;28;20205;-78
2021/04/05 05:26:45;;;;;;;24.67;16.65;;;;;;;;;;5055128;28;20197;-79
2021/04/05 05:29:13;;;;;;;21.95;16.13;;;;;;;;;;5055338;28;20202;-80
2021/04/05 05:31:43;;;;;;;24.23;17.85;;;;;;;;;;5037923;22;20227;-79
2021/04/05 05:34:11;;;;;;;21.60;16.58;;;;;;;;;;5020353;28;20203;-79
2021/04/05 05:36:38;;;;;;;20.90;16.30;;;;;;;;;;5020205;28;20246;-79
2021/04/05 05:39:06;;;;;;;31.83;17.98;;;;;;;;;;5020480;28;20265;-78
2021/04/05 05:41:52;;;;;;;22.92;16.80;;;;;;;;;;5018912;28;20263;-79
2021/04/05 05:44:24;;;;;;;21.85;14.90;;;;;;;;;;5020212;28;20203;-79
2021/04/05 05:46:57;;;;;;;26.13;17.02;;;;;;;;;;5018938;28;20684;-80
2021/04/05 05:49:37;;;;;;;22.98;16.23;;;;;;;;;;5019307;28;20269;-79
2021/04/05 05:52:16;;;;;;;23.20;18.23;;;;;;;;;;5018726;28;20219;-80
2021/04/05 05:55:26;;;;;;;20.17;15.23;;;;;;;;;;5019575;28;20669;-79
2021/04/05 05:58:04;;;;;;;21.80;15.45;;;;;;;;;;5019070;28;20195;-79
2021/04/05 06:00:35;;;;;;;21.65;15.15;;;;;;;;;;5020216;28;20218;-80
2021/04/05 06:03:21;;;;;;;25.25;18.40;;;;;;;;;;5019124;28;20206;-79
2021/04/05 06:05:56;;;;;;;21.23;14.43;;;;;;;;;;5019093;28;20203;-80
2021/04/05 06:08:32;;;;;;;29.80;17.88;;;;;;;;;;5018283;28;20207;-81
2021/04/05 06:11:14;;;;;;;28.02;16.27;;;;;;;;;;5018621;28;20257;-80
2021/04/05 06:13:59;;;;;;;28.23;17.05;;;;;;;;;;5018660;28;20214;-79
2021/04/05 06:16:41;;;;;;;24.92;16.23;;;;;;;;;;5018380;28;20222;-79
2021/04/05 06:19:41;;;;;;;22.58;15.50;;;;;;;;;;5017770;28;20207;-79
2021/04/05 06:22:16;;;;;;;20.60;16.35;;;;;;;;;;5018116;28;20820;-80
2021/04/05 06:24:50;;;;;;;31.33;16.88;;;;;;;;;;5018691;28;20225;-79
2021/04/05 06:27:26;;;;;;;20.10;14.93;;;;;;;;;;5016797;28;20673;-80
2021/04/05 06:30:08;;;;;;;23.38;16.13;;;;;;;;;;5015138;28;20179;-79
2021/04/05 06:32:56;;;;;;;23.05;15.63;;;;;;;;;;5016923;28;20203;-79
2021/04/05 06:35:59;;;;;;;18.88;15.00;;;;;;;;;;5016457;28;20203;-79
2021/04/05 06:38:31;;;;;;;23.20;13.93;;;;;;;;;;5017174;28;20207;-81
2021/04/05 06:41:06;;;;;;;29.00;15.57;;;;;;;;;;5017377;28;20281;-80
2021/04/05 06:44:12;;;;;;;22.05;14.45;;;;;;;;;;5017122;28;20203;-79
2021/04/05 06:47:29;;;;;;;20.75;14.88;;;;;;;;;;5016133;28;20210;-79
2021/04/05 06:50:14;;;;;;;26.08;14.80;;;;;;;;;;5015737;28;20395;-79
2021/04/05 06:53:15;;;;;;;22.80;15.20;;;;;;;;;;5016557;28;20203;-79
2021/04/05 06:55:44;;;;;;;21.10;14.63;;;;;;;;;;5016550;28;20199;-79
2021/04/05 06:58:24;;;;;;;23.00;15.05;;;;;;;;;;5016046;28;20567;-79
2021/04/05 07:01:02;;;;;;;23.38;15.95;;;;;;;;;;5016482;28;20227;-79
2021/04/05 07:03:57;;;;;;;22.73;16.35;;;;;;;;;;5016236;28;20210;-80
2021/04/05 07:06:47;;;;;;;18.92;14.10;;;;;;;;;;5015900;28;20715;-79
2021/04/05 07:09:23;;;;;;;20.13;14.63;;;;;;;;;;5016940;28;20262;-80
2021/04/05 07:12:25;;;;;;;23.65;15.60;;;;;;;;;;5015938;28;20219;-80
2021/04/05 07:15:05;;;;;;;26.23;15.50;;;;;;;;;;5018268;28;20198;-79
2021/04/05 07:17:48;;;;;;;20.60;14.60;;;;;;;;;;5017336;28;20245;-80
2021/04/05 07:20:21;;;;;;;19.35;14.50;;;;;;;;;;5020541;28;20219;-82
2021/04/05 07:23:03;;;;;;;21.17;14.98;;;;;;;;;;5020564;28;20675;-83
2021/04/05 07:25:52;;;;;;;20.63;14.13;;;;;;;;;;5022020;28;20203;-82
2021/04/05 07:28:23;;;;;;;18.88;13.77;;;;;;;;;;5021828;28;20634;-83
2021/04/05 07:30:59;;;;;;;19.38;13.73;;;;;;;;;;5014277;28;20235;-80
2021/04/05 07:33:37;;;;;;;15.25;13.23;;;;;;;;;;5000137;28;20199;-80
2021/04/05 07:36:13;;;;;;;19.83;14.05;;;;;;;;;;5000628;28;20203;-80
2021/04/05 07:38:49;;;;;;;19.83;14.10;;;;;;;;;;5000737;28;20207;-81
2021/04/05 07:41:27;;;;;;;19.63;13.70;;;;;;;;;;4999863;28;20219;-80
2021/04/05 07:44:24;;;;;;;18.10;12.70;;;;;;;;;;4999590;28;20254;-81
2021/04/05 07:46:55;;;;;;;17.17;13.63;;;;;;;;;;5000064;28;20592;-81
2021/04/05 07:49:25;;;;;;;19.65;13.32;;;;;;;;;;5000531;28;20242;-81
2021/04/05 07:51:56;;;;;;;25.95;12.88;;;;;;;;;;5001239;28;20215;-81
2021/04/05 07:54:27;;;;;;;15.30;11.60;;;;;;;;;;5001660;28;20744;-80
2021/04/05 07:57:05;;;;;;;15.68;11.85;;;;;;;;;;5000759;28;20219;-82
2021/04/05 07:59:43;;;;;;;18.20;13.35;;;;;;;;;;5000897;28;20681;-82
2021/04/05 08:02:43;;;;;;;15.95;11.70;;;;;;;;;;5001611;28;20224;-80
2021/04/05 08:05:23;;;;;;;17.27;11.73;;;;;;;;;;4994474;28;20204;-81
2021/04/05 08:08:15;;;;;;;15.95;11.40;;;;;;;;;;5001790;28;20214;-82
2021/04/05 08:10:55;;;;;;;15.10;11.75;;;;;;;;;;5002476;28;20725;-82
2021/04/05 08:13:29;;;;;;;14.15;10.63;;;;;;;;;;5003317;28;20203;-81
2021/04/05 08:16:08;;;;;;;14.27;9.75;;;;;;;;;;5002035;28;20227;-82
2021/04/05 08:18:38;;;;;;;13.38;10.45;;;;;;;;;;5001915;28;20207;-80
2021/04/05 08:21:10;;;;;;;14.00;10.73;;;;;;;;;;5002027;28;20219;-81
2021/04/05 08:23:53;;;;;;;15.02;10.65;;;;;;;;;;5001265;28;20262;-81
2021/04/05 08:26:29;;;;;;;13.27;10.02;;;;;;;;;;5001072;28;20207;-82
2021/04/05 08:29:11;;;;;;;11.05;9.95;;;;;;;;;;5001785;28;20386;-80
2021/04/05 08:32:18;;;;;;;13.05;9.00;;;;;;;;;;5002948;28;20254;-81
2021/04/05 08:35:09;;;;;;;11.15;9.15;;;;;;;;;;4980201;28;20222;-81
2021/04/05 08:37:58;;;;;;;9.68;8.65;;;;;;;;;;4998208;28;20234;-80
2021/04/05 08:40:30;;;;;;;8.23;7.18;;;;;;;;;;4999927;28;20231;-80
2021/04/05 08:43:07;;;;;;;11.07;8.60;;;;;;;;;;5000668;28;20578;-81
2021/04/05 08:45:43;;;;;;;13.13;8.57;;;;;;;;;;5000975;28;20274;-80
2021/04/05 08:48:14;;;;;;;11.52;8.15;;;;;;;;;;5001061;28;20207;-81
2021/04/05 08:50:43;;;;;;;8.15;7.00;;;;;;;;;;5000972;28;20235;-80
2021/04/05 08:53:12;;;;;;;10.23;7.93;;;;;;;;;;5001617;28;20203;-81
2021/04/05 08:55:41;;;;;;;9.35;6.70;;;;;;;;;;5000045;28;20258;-81
2021/04/05 08:58:11;;;;;;;9.48;7.75;;;;;;;;;;4999366;28;20235;-80
2021/04/05 09:00:42;;;;;;;7.32;6.47;;;;;;;;;;4998504;28;20241;-82
2021/04/05 09:03:10;;;;;;;9.00;6.90;;;;;;;;;;4999058;28;20207;-81
2021/04/05 09:05:42;;;;;;;7.50;6.72;;;;;;;;;;4998769;28;20200;-83
2021/04/05 09:08:11;;;;;;;8.48;6.95;;;;;;;;;;5002074;28;20532;-80
2021/04/05 09:10:48;;;;;;;11.27;7.43;;;;;;;;;;5004360;28;20224;-82
2021/04/05 09:13:19;;;;;;;9.70;6.57;;;;;;;;;;5004740;28;20203;-80
2021/04/05 09:16:44;;;;;;;10.05;6.53;;;;;;;;;;5001791;28;20206;-82
2021/04/05 09:19:53;;;;;;;9.23;7.28;;;;;;;;;;4977662;28;20217;-80
2021/04/05 09:22:46;;;;;;;6.80;5.65;;;;;;;;;;4998877;28;20278;-81
2021/04/05 09:25:40;;;;;;;5.07;4.55;;;;;;;;;;5001361;28;20533;-81
2021/04/05 09:28:37;;;;;;;4.13;3.72;;;;;;;;;;4999328;28;20271;-81
2021/04/05 09:31:35;;;;;;;4.20;3.60;;;;;;;;;;5005229;28;20223;-81
2021/04/05 09:34:29;;;;;;;2.65;2.42;;;;;;;;;;5003406;28;20199;-81
2021/04/05 09:37:17;;;;;;;1.65;1.55;;;;;;;;;;5027299;28;20219;-81
2021/04/05 09:40:14;;;;;;;1.60;1.50;;;;;;;;;;5029509;28;20187;-82
2021/04/05 09:43:22;;;;;;;1.65;1.55;;;;;;;;;;5010384;28;20668;-81
2021/04/05 09:45:56;;;;;;;1.80;1.70;;;;;;;;;;5028829;28;20213;-82
2021/04/05 09:48:43;;;;;;;1.63;1.52;;;;;;;;;;5028414;28;20203;-82
2021/04/05 09:51:45;;;;;;;1.58;1.48;;;;;;;;;;5031271;28;20238;-81
2021/04/05 09:54:21;;;;;;;1.90;1.13;;;;;;;;;;5032448;28;20194;-82
2021/04/05 09:56:55;;;;;;;1.10;1.10;;;;;;;;;;5029150;28;20557;-82
2021/04/05 09:59:28;;;;;;;0.90;0.90;;;;;;;;;;5026472;28;20199;-82
2021/04/05 10:01:55;;;;;;;1.23;1.13;;;;;;;;;;5021154;28;20215;-81
2021/04/05 10:04:24;;;;;;;0.70;0.70;;;;;;;;;;5021072;28;20203;-81
2021/04/05 10:06:52;;;;;;;1.30;0.80;;;;;;;;;;5022434;28;20206;-81
2021/04/05 10:09:26;;;;;;;0.68;0.68;;;;;;;;;;5024543;28;20187;-81
2021/04/05 10:11:54;;;;;;;1.10;0.88;;;;;;;;;;5027240;28;20608;-82
2021/04/05 10:14:22;;;;;;;1.27;1.17;;;;;;;;;;5029671;28;20241;-81
2021/04/05 10:16:53;;;;;;;0.80;0.80;;;;;;;;;;5030655;28;20187;-81
2021/04/05 10:19:28;;;;;;;0.60;0.60;;;;;;;;;;5034216;28;20583;-81
2021/04/05 10:22:03;;;;;;;1.10;1.00;;;;;;;;;;5042175;28;20225;-81
2021/04/05 10:24:33;;;;;;;0.60;0.60;;;;;;;;;;5033844;28;20190;-81
2021/04/05 10:27:05;;;;;;;0.70;0.70;;;;;;;;;;5030036;28;20194;-81
2021/04/05 10:29:35;;;;;;;0.82;0.82;;;;;;;;;;5029068;28;20642;-81
2021/04/05 10:32:05;;;;;;;1.52;0.88;;;;;;;;;;5004667;28;554637;-80
2021/04/05 10:34:36;;;;;;;0.70;0.70;;;;;;;;;;5023488;28;20214;-81
2021/04/05 10:37:11;;;;;;;0.95;0.90;;;;;;;;;;5020944;28;20228;-81
2021/04/05 10:39:47;;;;;;;0.60;0.60;;;;;;;;;;5019696;28;20199;-81
2021/04/05 10:42:20;;;;;;;1.20;0.88;;;;;;;;;;5019937;28;20230;-81
2021/04/05 10:44:48;;;;;;;0.50;0.50;;;;;;;;;;5019593;28;20211;-80
2021/04/05 10:47:22;;;;;;;0.70;0.70;;;;;;;;;;5019835;28;20195;-80
2021/04/05 10:49:52;;;;;;;0.70;0.68;;;;;;;;;;5014611;28;20199;-79
2021/04/05 10:52:22;;;;;;;1.00;0.70;;;;;;;;;;5019078;28;20219;-81
2021/04/05 10:54:51;;;;;;;0.85;0.82;;;;;;;;;;5020758;28;20673;-81
2021/04/05 10:57:25;;;;;;;4.97;1.90;;;;;;;;;;5018776;28;20234;-80
2021/04/05 10:59:53;;;;;;;2.50;1.08;;;;;;;;;;5020146;28;20195;-80
2021/04/05 11:02:25;;;;;;;3.50;1.58;;;;;;;;;;5020264;28;20285;-80
2021/04/05 11:04:56;;;;;;;6.07;1.90;;;;;;;;;;5021013;28;20210;-81
2021/04/05 11:07:26;;;;;;;3.33;1.40;;;;;;;;;;5020682;28;20191;-80
2021/04/05 11:09:55;;;;;;;5.18;1.40;;;;;;;;;;5020721;28;20221;-80
2021/04/05 11:12:23;;;;;;;2.65;1.48;;;;;;;;;;5020191;28;20717;-81
2021/04/05 11:14:51;;;;;;;3.70;2.65;;;;;;;;;;5022568;28;20187;-80
2021/04/05 11:17:19;;;;;;;5.18;1.75;;;;;;;;;;5021594;28;20210;-82
2021/04/05 11:19:54;;;;;;;2.78;1.50;;;;;;;;;;5020285;28;20711;-80
2021/04/05 11:22:25;;;;;;;2.25;1.42;;;;;;;;;;5019017;28;20215;-81
2021/04/05 11:25:00;;;;;;;1.98;1.73;;;;;;;;;;5019472;28;20199;-81
2021/04/05 11:27:29;;;;;;;2.72;1.67;;;;;;;;;;5021529;28;20202;-81
2021/04/05 11:29:59;;;;;;;1.25;1.13;;;;;;;;;;5021121;28;20210;-81
2021/04/05 11:32:28;;;;;;;2.35;1.33;;;;;;;;;;5018189;28;20242;-82
2021/04/05 11:34:58;;;;;;;1.50;1.40;;;;;;;;;;5017603;28;20199;-82
2021/04/05 11:37:31;;;;;;;4.38;1.48;;;;;;;;;;5017211;28;20230;-81
2021/04/05 11:40:03;;;;;;;2.97;1.10;;;;;;;;;;5017805;28;20205;-81
2021/04/05 11:42:36;;;;;;;2.28;1.42;;;;;;;;;;5017845;28;20192;-81
2021/04/05 11:45:06;;;;;;;1.23;1.20;;;;;;;;;;5016269;28;20699;-80
2021/04/05 11:47:40;;;;;;;2.30;1.58;;;;;;;;;;5016085;28;20661;-82
2021/04/05 11:50:14;;;;;;;5.15;1.60;;;;;;;;;;5016736;28;20187;-82
2021/04/05 11:52:46;;;;;;;5.38;1.77;;;;;;;;;;5015809;28;20668;-82
2021/04/05 11:55:20;;;;;;;5.50;1.60;;;;;;;;;;5017426;28;20221;-83
2021/04/05 11:57:55;;;;;;;1.63;1.52;;;;;;;;;;5016600;28;20270;-81
2021/04/05 12:00:29;;;;;;;3.13;1.25;;;;;;;;;;5014788;28;20203;-84
2021/04/05 12:03:09;;;;;;;1.15;0.90;;;;;;;;;;5014997;28;20191;-81
2021/04/05 12:05:42;;;;;;;0.93;0.73;;;;;;;;;;5013802;28;20207;-80
2021/04/05 12:08:13;;;;;;;1.08;0.98;;;;;;;;;;5015785;28;21016;-81
2021/04/05 12:10:44;;;;;;;3.28;0.80;;;;;;;;;;5014947;28;20759;-80
2021/04/05 12:13:16;;;;;;;0.60;0.60;;;;;;;;;;5013904;28;20202;-80
2021/04/05 12:15:46;;;;;;;1.95;0.90;;;;;;;;;;5013350;28;20699;-81
2021/04/05 12:18:13;;;;;;;2.58;1.00;;;;;;;;;;5013257;28;20286;-82
2021/04/05 12:20:41;;;;;;;0.73;0.73;;;;;;;;;;5012696;28;20257;-82
2021/04/05 12:23:10;;;;;;;0.93;0.80;;;;;;;;;;5013507;28;20753;-82
2021/04/05 12:25:39;;;;;;;0.60;0.60;;;;;;;;;;5013632;28;20290;-81
2021/04/05 12:28:10;;;;;;;1.05;1.05;;;;;;;;;;5014366;28;20209;-80
2021/04/05 12:30:38;;;;;;;0.60;0.60;;;;;;;;;;5011891;28;20273;-81
2021/04/05 12:33:08;;;;;;;1.48;0.82;;;;;;;;;;4994155;28;20204;-81
2021/04/05 12:35:35;;;;;;;1.27;0.90;;;;;;;;;;4993839;28;20203;-80
2021/04/05 12:38:06;;;;;;;2.80;1.40;;;;;;;;;;4994739;28;20222;-80
2021/04/05 12:40:35;;;;;;;1.02;0.90;;;;;;;;;;4994501;28;20231;-80
2021/04/05 12:43:05;;;;;;;0.93;0.80;;;;;;;;;;4995578;28;20192;-80
2021/04/05 12:45:33;;;;;;;1.90;0.98;;;;;;;;;;4996697;28;20192;-81
2021/04/05 12:48:00;;;;;;;1.10;1.00;;;;;;;;;;4996791;28;20192;-81
2021/04/05 12:50:34;;;;;;;1.70;0.88;;;;;;;;;;4997819;28;20223;-83
2021/04/05 12:53:05;;;;;;;0.93;0.90;;;;;;;;;;4994043;28;20403;-81
2021/04/05 12:55:39;;;;;;;0.95;0.90;;;;;;;;;;4997317;28;20200;-82
2021/04/05 12:58:07;;;;;;;2.60;1.38;;;;;;;;;;4998623;28;20716;-82
2021/04/05 13:00:40;;;;;;;2.47;1.10;;;;;;;;;;4997418;28;20219;-81
2021/04/05 13:03:14;;;;;;;2.20;1.90;;;;;;;;;;4995553;28;20200;-81
2021/04/05 13:05:46;;;;;;;1.60;1.10;;;;;;;;;;4994395;28;20195;-82
2021/04/05 13:08:26;;;;;;;10.43;1.50;;;;;;;;;;4996913;28;20188;-81
2021/04/05 13:11:00;;;;;;;2.72;1.35;;;;;;;;;;4997141;28;20294;-82
2021/04/05 13:13:30;;;;;;;1.90;1.52;;;;;;;;;;4996925;28;20223;-82
2021/04/05 13:16:05;;;;;;;4.00;1.70;;;;;;;;;;4995984;28;20192;-81
2021/04/05 13:18:35;;;;;;;3.10;1.20;;;;;;;;;;4996232;28;20219;-81
2021/04/05 13:21:05;;;;;;;1.63;0.90;;;;;;;;;;4994632;28;20224;-81
2021/04/05 13:23:39;;;;;;;1.30;1.00;;;;;;;;;;4997090;28;20246;-82
2021/04/05 13:26:08;;;;;;;2.03;1.35;;;;;;;;;;4994327;28;20298;-81
2021/04/05 13:28:35;;;;;;;3.13;1.08;;;;;;;;;;4996471;28;20192;-81
2021/04/05 13:31:05;;;;;;;2.45;1.20;;;;;;;;;;5002751;28;20227;-81
2021/04/05 13:33:35;;;;;;;2.47;1.55;;;;;;;;;;5025266;28;20194;-80
2021/04/05 13:36:06;;;;;;;1.60;1.08;;;;;;;;;;5022286;28;20187;-81
2021/04/05 13:38:36;;;;;;;2.15;1.95;;;;;;;;;;5032479;28;20214;-81
2021/04/05 13:41:08;;;;;;;1.33;1.17;;;;;;;;;;5026231;28;20222;-80
2021/04/05 13:43:38;;;;;;;1.83;1.60;;;;;;;;;;5022712;28;20199;-81
2021/04/05 13:46:09;;;;;;;3.47;1.48;;;;;;;;;;5024447;28;20187;-81
2021/04/05 13:48:38;;;;;;;1.25;1.00;;;;;;;;;;5020915;28;20254;-83
2021/04/05 13:51:07;;;;;;;3.58;1.20;;;;;;;;;;5022329;28;20297;-81
2021/04/05 13:53:39;;;;;;;1.48;1.20;;;;;;;;;;5018455;28;20203;-81
2021/04/05 13:56:07;;;;;;;1.95;1.40;;;;;;;;;;5026484;28;20244;-82
2021/04/05 13:58:37;;;;;;;2.25;1.40;;;;;;;;;;5033766;28;20700;-81
2021/04/05 14:01:10;;;;;;;4.80;1.40;;;;;;;;;;5034289;28;20704;-82
2021/04/05 14:03:40;;;;;;;5.65;1.52;;;;;;;;;;5030659;28;20539;-82
2021/04/05 14:06:14;;;;;;;3.30;1.30;;;;;;;;;;5021941;28;20234;-81
2021/04/05 14:08:44;;;;;;;2.50;1.25;;;;;;;;;;5023554;28;20276;-81
2021/04/05 14:11:15;;;;;;;4.30;1.65;;;;;;;;;;5023223;28;20233;-81
2021/04/05 14:13:44;;;;;;;3.83;1.30;;;;;;;;;;5018842;28;20544;-82
2021/04/05 14:16:17;;;;;;;1.75;0.98;;;;;;;;;;5022158;28;20664;-82
2021/04/05 14:19:01;;;;;;;1.50;1.27;;;;;;;;;;5020311;28;20211;-82
2021/04/05 14:21:30;;;;;;;2.30;1.40;;;;;;;;;;5022559;28;20269;-82
2021/04/05 14:24:04;;;;;;;2.58;1.25;;;;;;;;;;5023203;28;20202;-81
2021/04/05 14:26:37;;;;;;;5.78;1.50;;;;;;;;;;5021518;28;20209;-80
2021/04/05 14:29:07;;;;;;;2.28;1.50;;;;;;;;;;5012718;28;20255;-81
2021/04/05 14:31:38;;;;;;;1.58;1.42;;;;;;;;;;5012790;28;20732;-81
2021/04/05 14:34:12;;;;;;;4.13;1.65;;;;;;;;;;5012974;28;20194;-82
2021/04/05 14:36:39;;;;;;;3.90;1.08;;;;;;;;;;5012409;28;20203;-81
2021/04/05 14:39:11;;;;;;;4.80;2.13;;;;;;;;;;5013295;28;20207;-81
2021/04/05 14:41:40;;;;;;;3.35;1.50;;;;;;;;;;5012232;28;20258;-81
2021/04/05 14:44:11;;;;;;;3.35;1.42;;;;;;;;;;5012381;28;20206;-81
2021/04/05 14:46:41;;;;;;;4.03;1.90;;;;;;;;;;5012807;28;20203;-82
2021/04/05 14:49:11;;;;;;;3.05;2.30;;;;;;;;;;5013269;28;20203;-79
2021/04/05 14:51:41;;;;;;;3.65;1.58;;;;;;;;;;5012762;28;20219;-81
2021/04/05 14:54:10;;;;;;;3.55;1.60;;;;;;;;;;5012575;28;20633;-81
2021/04/05 14:56:38;;;;;;;3.28;1.58;;;;;;;;;;5012719;28;20575;-82
2021/04/05 14:59:07;;;;;;;3.60;1.33;;;;;;;;;;5012567;28;20209;-81
2021/04/05 15:01:37;;;;;;;2.85;2.05;;;;;;;;;;5012064;28;20210;-82
2021/04/05 15:04:06;;;;;;;3.10;2.22;;;;;;;;;;4999827;28;20223;-82